Time;durP1;ratioP1;P1;durP2;ratioP2;P2;SDS_P1;SDS_P2;PMS_P1;PMS_P2;Temp;Humidity;BMP_temperature;BMP_pressure;BME280_temperature;BME280_humidity;BME280_pressure;Samples;Min_cycle;Max_cycle;Signal;HPM_P1;HPM_P2
2022/12/18 00:02:21;;;;;;;0.00;0.00;;;;;;;5.10;68.38;100845.47;7350993;19;21188;-58
2022/12/18 00:04:47;;;;;;;0.00;0.00;;;;;;;5.10;68.20;100849.78;7360391;19;20413;-57
2022/12/18 00:07:12;;;;;;;0.00;0.00;;;;;;;5.08;68.63;100852.38;7356787;19;20066;-58
2022/12/18 00:09:38;;;;;;;0.00;0.00;;;;;;;5.08;68.46;100841.19;7356224;19;22014;-58
2022/12/18 00:12:03;;;;;;;0.00;0.00;;;;;;;5.01;68.57;100829.06;7348999;19;20015;-58
2022/12/18 00:14:29;;;;;;;0.00;0.00;;;;;;;5.03;68.55;100829.94;7351356;19;20094;-57
2022/12/18 00:16:54;;;;;;;0.00;0.00;;;;;;;5.02;68.45;100828.19;7349474;19;20746;-57
2022/12/18 00:19:20;;;;;;;0.08;0.08;;;;;;;5.01;68.83;100837.69;7346782;19;20022;-57
2022/12/18 00:21:45;;;;;;;0.00;0.00;;;;;;;5.01;68.82;100839.41;7346742;19;20010;-58
2022/12/18 00:24:11;;;;;;;0.00;0.00;;;;;;;5.01;68.63;100842.00;7351641;19;20018;-58
2022/12/18 00:26:38;;;;;;;0.00;0.00;;;;;;;4.94;68.85;100842.00;7354987;19;21031;-57
2022/12/18 00:29:10;;;;;;;0.00;0.00;;;;;;;5.00;68.50;100848.03;7362288;19;20025;-57
2022/12/18 00:31:37;;;;;;;0.00;0.00;;;;;;;4.98;68.64;100840.28;7359293;19;20644;-58
2022/12/18 00:34:02;;;;;;;0.00;0.00;;;;;;;4.98;68.63;100844.59;7360667;19;20023;-57
2022/12/18 00:36:34;;;;;;;0.00;0.00;;;;;;;4.91;68.77;100836.78;7359984;19;20029;-58
2022/12/18 00:39:01;;;;;;;0.00;0.00;;;;;;;4.99;69.04;100846.31;7361356;19;20010;-58
2022/12/18 00:44:13;;;;;;;0.00;0.00;;;;;;;4.86;69.05;100820.41;7361857;19;20022;-58
2022/12/18 00:46:40;;;;;;;0.00;0.00;;;;;;;5.06;69.29;100848.06;7361251;19;20966;-58
2022/12/18 00:49:05;;;;;;;0.10;0.10;;;;;;;5.07;69.55;100834.25;7359550;19;20010;-57
2022/12/18 00:51:30;;;;;;;0.10;0.10;;;;;;;5.13;69.41;100834.28;7360437;19;20011;-58
2022/12/18 00:53:56;;;;;;;0.00;0.00;;;;;;;5.19;69.27;100835.16;7359286;19;20029;-58
2022/12/18 00:56:21;;;;;;;0.00;0.00;;;;;;;5.26;69.30;100836.00;7359340;19;20504;-58
2022/12/18 00:58:47;;;;;;;0.10;0.10;;;;;;;5.31;69.89;100820.47;7356737;19;20623;-58
2022/12/18 01:01:13;;;;;;;0.10;0.10;;;;;;;5.36;69.50;100814.44;7357693;19;20014;-56
2022/12/18 01:03:38;;;;;;;0.00;0.00;;;;;;;5.38;69.58;100809.28;7347853;19;20010;-58
2022/12/18 01:06:09;;;;;;;0.10;0.10;;;;;;;5.45;69.64;100814.44;7359616;19;20135;-58
2022/12/18 01:08:36;;;;;;;0.00;0.00;;;;;;;5.39;69.68;100806.69;7357952;19;20010;-58
2022/12/18 01:11:11;;;;;;;0.08;0.08;;;;;;;5.54;69.52;100815.31;7356481;19;20061;-58
2022/12/18 01:13:37;;;;;;;0.10;0.10;;;;;;;5.54;69.98;100804.97;7357822;19;20557;-57
2022/12/18 01:16:03;;;;;;;0.05;0.05;;;;;;;5.61;69.82;100801.47;7363388;19;20037;-57
2022/12/18 01:18:28;;;;;;;0.00;0.00;;;;;;;5.62;69.75;100792.84;7364672;19;20011;-58
2022/12/18 01:20:53;;;;;;;0.00;0.00;;;;;;;5.66;69.83;100789.38;7365841;19;20027;-57
2022/12/18 01:23:19;;;;;;;0.00;0.00;;;;;;;5.69;69.95;100789.41;7364671;19;20014;-58
2022/12/18 01:25:44;;;;;;;0.00;0.00;;;;;;;5.76;70.16;100785.06;7366536;19;20419;-58
2022/12/18 01:28:11;;;;;;;0.03;0.03;;;;;;;5.77;69.94;100782.47;7360378;19;20010;-59
2022/12/18 01:30:36;;;;;;;0.00;0.00;;;;;;;5.70;69.65;100760.03;7364067;19;20034;-57
2022/12/18 01:33:04;;;;;;;0.10;0.10;;;;;;;5.84;69.69;100781.59;7363091;19;20006;-58
2022/12/18 01:35:29;;;;;;;0.00;0.00;;;;;;;5.82;69.67;100780.72;7362982;19;20760;-58
2022/12/18 01:37:55;;;;;;;0.00;0.00;;;;;;;5.85;69.90;100785.91;7364537;19;20034;-56
2022/12/18 01:40:21;;;;;;;0.00;0.00;;;;;;;5.87;69.90;100778.97;7363924;19;20030;-56
2022/12/18 01:42:53;;;;;;;0.00;0.00;;;;;;;5.91;69.90;100783.34;7361362;19;20110;-57
2022/12/18 01:45:27;;;;;;;0.00;0.00;;;;;;;5.92;69.83;100764.31;7364621;19;20010;-57
2022/12/18 01:47:59;;;;;;;0.00;0.00;;;;;;;5.93;70.15;100758.28;7365793;19;20012;-58
2022/12/18 01:50:29;;;;;;;0.00;0.00;;;;;;;5.85;69.79;100744.44;7363138;19;20101;-57
2022/12/18 01:52:59;;;;;;;0.00;0.00;;;;;;;5.91;69.97;100739.28;7364512;19;20007;-58
2022/12/18 01:55:29;;;;;;;0.10;0.10;;;;;;;5.93;69.79;100731.47;7357904;19;20009;-57
2022/12/18 01:57:57;;;;;;;0.00;0.00;;;;;;;5.93;69.86;100731.47;7365390;19;20030;-58
2022/12/18 02:00:24;;;;;;;0.00;0.00;;;;;;;5.91;69.69;100728.91;7359813;19;20255;-57
2022/12/18 02:02:49;;;;;;;0.00;0.00;;;;;;;5.85;69.45;100708.16;7364540;19;20010;-58
2022/12/18 02:05:22;;;;;;;0.00;0.00;;;;;;;5.92;69.61;100719.41;7364598;19;20049;-58
2022/12/18 02:08:06;;;;;;;0.00;0.00;;;;;;;5.92;69.44;100714.22;7366308;19;20033;-58
2022/12/18 02:10:34;;;;;;;0.00;0.00;;;;;;;5.88;70.04;100708.16;7364872;19;20030;-58
2022/12/18 02:13:17;;;;;;;0.00;0.00;;;;;;;5.91;69.48;100692.63;7363678;19;20744;-58
2022/12/18 02:15:45;;;;;;;0.10;0.10;;;;;;;5.90;69.98;100701.25;7362881;19;20018;-57
2022/12/18 02:18:18;;;;;;;0.10;0.10;;;;;;;5.89;70.25;100699.53;7361392;19;20414;-56
2022/12/18 02:20:54;;;;;;;0.00;0.00;;;;;;;5.85;70.05;100692.63;7363374;19;20018;-58
2022/12/18 02:23:56;;;;;;;0.00;0.00;;;;;;;5.93;69.07;100706.47;7361364;19;20011;-58
2022/12/18 02:26:34;;;;;;;0.00;0.00;;;;;;;5.83;69.10;100684.00;7257977;19;2004873;-59
2022/12/18 02:29:04;;;;;;;0.00;0.00;;;;;;;5.97;69.39;100710.72;7365080;19;20011;-58
2022/12/18 02:31:39;;;;;;;0.00;0.00;;;;;;;5.94;69.78;100687.44;7364101;19;20010;-59
2022/12/18 02:34:08;;;;;;;0.00;0.00;;;;;;;5.98;69.83;100694.34;7363914;19;20018;-57
2022/12/18 02:36:36;;;;;;;0.00;0.00;;;;;;;6.04;69.28;100690.00;7362059;19;20013;-57
2022/12/18 02:39:02;;;;;;;;;;;;;;;6.12;68.41;100691.66;7364863;19;20027;-59
2022/12/18 02:41:29;;;;;;;0.00;0.00;;;;;;;6.08;68.93;100681.31;7360710;19;20354;-58
2022/12/18 02:43:58;;;;;;;0.00;0.00;;;;;;;6.14;69.24;100689.09;7362859;19;20015;-59
2022/12/18 02:46:27;;;;;;;0.00;0.00;;;;;;;6.20;69.06;100694.25;7365182;19;20018;-58
2022/12/18 02:48:59;;;;;;;0.08;0.08;;;;;;;6.20;68.71;100689.06;7361587;19;20042;-58
2022/12/18 02:51:34;;;;;;;0.05;0.05;;;;;;;6.26;69.22;100689.00;7362424;19;20062;-58
2022/12/18 02:54:14;;;;;;;0.10;0.10;;;;;;;6.27;68.82;100680.34;7362270;19;20015;-59
2022/12/18 02:56:50;;;;;;;0.00;0.00;;;;;;;6.33;69.26;100677.72;7357684;19;20528;-58
2022/12/18 02:59:23;;;;;;;0.00;0.00;;;;;;;6.29;69.53;100657.88;7353361;19;20014;-58
2022/12/18 03:02:01;;;;;;;0.00;0.00;;;;;;;6.39;69.48;100667.34;7363811;19;20028;-58
2022/12/18 03:04:55;;;;;;;0.00;0.00;;;;;;;6.45;68.84;100649.13;7365708;19;20037;-57
2022/12/18 03:07:27;;;;;;;0.00;0.00;;;;;;;6.50;69.46;100646.50;7258057;19;2004256;-57
2022/12/18 03:09:55;;;;;;;0.00;0.00;;;;;;;6.55;69.36;100636.09;7366077;19;20010;-58
2022/12/18 03:12:29;;;;;;;0.00;0.00;;;;;;;6.60;69.81;100636.94;7364822;19;20030;-58
2022/12/18 03:15:10;;;;;;;0.00;0.00;;;;;;;6.66;69.40;100613.53;7361934;19;20927;-58
2022/12/18 03:17:38;;;;;;;0.00;0.00;;;;;;;6.66;69.57;100605.75;7363756;19;20013;-58
2022/12/18 03:20:09;;;;;;;0.10;0.10;;;;;;;6.73;69.44;100602.22;7359594;19;20014;-58
2022/12/18 03:22:37;;;;;;;0.08;0.08;;;;;;;6.79;69.17;100602.16;7365859;19;20387;-58
2022/12/18 03:25:08;;;;;;;0.00;0.00;;;;;;;6.85;69.63;100602.13;7337550;19;20840;-58
2022/12/18 03:27:38;;;;;;;0.05;0.05;;;;;;;6.87;69.51;100599.50;7363077;19;21052;-58
2022/12/18 03:30:08;;;;;;;0.00;0.00;;;;;;;6.88;69.53;100586.50;7359927;19;20014;-56
2022/12/18 03:33:01;;;;;;;0.00;0.00;;;;;;;6.96;69.46;100581.25;7355991;19;20002;-53
2022/12/18 03:35:33;;;;;;;0.00;0.00;;;;;;;6.98;69.20;100572.56;7260497;19;2004488;-58
2022/12/18 03:37:58;;;;;;;0.00;0.00;;;;;;;7.02;69.54;100563.88;7354885;19;20100;-58
2022/12/18 03:40:48;;;;;;;0.10;0.10;;;;;;;6.87;69.16;100530.28;7362176;19;20070;-58
2022/12/18 03:43:28;;;;;;;0.10;0.10;;;;;;;7.12;69.32;100563.78;7259262;19;2004057;-58
2022/12/18 03:46:04;;;;;;;0.00;0.00;;;;;;;7.14;68.85;100570.66;7359728;19;20043;-57
2022/12/18 03:48:37;;;;;;;0.00;0.00;;;;;;;7.03;68.88;100555.19;7362923;19;20653;-58
2022/12/18 03:51:11;;;;;;;0.03;0.03;;;;;;;7.08;68.78;100556.88;7363157;19;20007;-57
2022/12/18 03:53:41;;;;;;;0.00;0.00;;;;;;;7.13;68.80;100571.53;7364213;19;20047;-57
2022/12/18 03:56:09;;;;;;;0.00;0.00;;;;;;;6.86;68.34;100518.19;7359662;19;20347;-58
2022/12/18 03:58:37;;;;;;;0.00;0.00;;;;;;;7.15;68.68;100572.41;7355474;19;20010;-56
2022/12/18 04:01:03;;;;;;;;;;;;;;;7.19;68.59;100565.41;7361625;19;20013;-54
2022/12/18 04:03:32;;;;;;;0.00;0.00;;;;;;;7.15;68.39;100563.75;7346848;19;19915;-58
2022/12/18 04:05:59;;;;;;;0.00;0.00;;;;;;;7.07;67.92;100534.41;7363301;19;20817;-58
2022/12/18 04:08:25;;;;;;;;;;;;;;;7.18;67.84;100537.72;7361818;19;20010;-55
2022/12/18 04:10:51;;;;;;;0.00;0.00;;;;;;;7.15;68.04;100543.84;7364602;19;19927;-59
2022/12/18 04:13:32;;;;;;;0.00;0.00;;;;;;;7.16;68.23;100529.97;7362111;19;20777;-58
2022/12/18 04:15:58;;;;;;;0.10;0.10;;;;;;;7.12;68.33;100530.03;7361043;19;20061;-56
2022/12/18 04:18:23;;;;;;;0.00;0.00;;;;;;;7.09;68.53;100532.63;7353443;19;20640;-58
2022/12/18 04:20:49;;;;;;;0.00;0.00;;;;;;;7.11;68.62;100533.50;7345574;19;20033;-58
2022/12/18 04:23:14;;;;;;;0.00;0.00;;;;;;;7.10;68.37;100529.19;7356601;19;20015;-58
2022/12/18 04:25:39;;;;;;;0.08;0.08;;;;;;;7.13;68.66;100530.00;7353068;19;20014;-58
2022/12/18 04:28:05;;;;;;;0.10;0.10;;;;;;;7.11;68.56;100511.00;7355378;19;20014;-58
2022/12/18 04:30:31;;;;;;;0.00;0.00;;;;;;;7.01;68.62;100479.06;7356337;19;20014;-58
2022/12/18 04:32:56;;;;;;;0.00;0.00;;;;;;;7.23;68.63;100504.78;7359224;19;20090;-57
2022/12/18 04:35:21;;;;;;;0.10;0.10;;;;;;;7.22;68.76;100501.31;7359490;19;20011;-58
2022/12/18 04:37:47;;;;;;;0.00;0.00;;;;;;;7.28;68.75;100493.44;7357123;19;20047;-58
2022/12/18 04:40:13;;;;;;;0.00;0.00;;;;;;;7.30;68.65;100467.47;7356672;19;20014;-57
2022/12/18 04:42:40;;;;;;;0.10;0.10;;;;;;;7.31;69.21;100484.78;7359146;19;20006;-58
2022/12/18 04:45:06;;;;;;;0.00;0.00;;;;;;;7.36;68.68;100480.38;7356697;19;20010;-57
2022/12/18 04:47:31;;;;;;;0.10;0.10;;;;;;;7.36;68.68;100475.19;7355669;19;20011;-57
2022/12/18 04:49:56;;;;;;;0.00;0.00;;;;;;;7.39;68.65;100475.13;7353825;19;20017;-58
2022/12/18 04:52:22;;;;;;;0.00;0.00;;;;;;;7.42;68.62;100475.09;7352383;19;20870;-58
2022/12/18 04:54:47;;;;;;;0.00;0.00;;;;;;;7.43;68.74;100466.41;7357970;19;20117;-57
2022/12/18 04:57:13;;;;;;;0.08;0.08;;;;;;;7.44;68.85;100457.75;7357647;19;20003;-58
2022/12/18 04:59:38;;;;;;;0.00;0.00;;;;;;;7.47;68.62;100447.31;7357179;19;20015;-58
2022/12/18 05:02:03;;;;;;;0.00;0.00;;;;;;;7.48;68.73;100441.22;7354701;19;20083;-58
2022/12/18 05:04:29;;;;;;;0.00;0.00;;;;;;;7.27;68.62;100397.38;7354268;19;20014;-58
2022/12/18 05:06:54;;;;;;;0.00;0.00;;;;;;;7.48;69.00;100427.38;7357226;19;20013;-58
2022/12/18 05:09:20;;;;;;;0.00;0.00;;;;;;;7.59;69.20;100424.63;7356411;19;20014;-56
2022/12/18 05:11:46;;;;;;;0.03;0.03;;;;;;;7.66;68.68;100436.66;7354651;19;20002;-58
2022/12/18 05:14:11;;;;;;;0.00;0.00;;;;;;;7.67;68.88;100427.97;7358704;19;20006;-58
2022/12/18 05:16:37;;;;;;;0.00;0.00;;;;;;;7.71;69.17;100420.13;7354861;19;20035;-58
2022/12/18 05:19:02;;;;;;;0.00;0.00;;;;;;;7.71;69.21;100419.25;7357965;19;21312;-58
2022/12/18 05:21:28;;;;;;;0.00;0.00;;;;;;;7.73;68.83;100401.88;7356398;19;20011;-56
2022/12/18 05:23:53;;;;;;;0.00;0.00;;;;;;;7.77;68.98;100393.16;7357456;19;20011;-57
2022/12/18 05:26:18;;;;;;;0.00;0.00;;;;;;;7.74;68.93;100377.59;7356660;19;20021;-57
2022/12/18 05:28:44;;;;;;;0.00;0.00;;;;;;;7.81;68.72;100368.84;7351221;19;20023;-56
2022/12/18 05:31:10;;;;;;;0.00;0.00;;;;;;;7.82;68.80;100391.34;7355519;19;20013;-57
2022/12/18 05:33:35;;;;;;;0.00;0.00;;;;;;;7.86;69.08;100361.84;7356225;19;20014;-58
2022/12/18 05:36:03;;;;;;;0.00;0.00;;;;;;;7.78;69.13;100343.75;7357704;19;20833;-58
2022/12/18 05:38:31;;;;;;;0.00;0.00;;;;;;;7.88;69.20;100354.00;7354261;19;20614;-57
2022/12/18 05:40:56;;;;;;;;;;;;;;;7.92;68.56;100351.31;7355293;19;20435;-54
2022/12/18 05:43:22;;;;;;;0.00;0.00;;;;;;;7.90;69.07;100347.88;7358176;19;19926;-58
2022/12/18 05:45:48;;;;;;;0.00;0.00;;;;;;;7.90;69.46;100345.28;7353692;19;20040;-55
2022/12/18 05:48:15;;;;;;;0.00;0.00;;;;;;;7.88;69.22;100344.44;7355876;19;20018;-56
2022/12/18 05:50:42;;;;;;;0.00;0.00;;;;;;;7.87;69.38;100334.09;7352253;19;20022;-57
2022/12/18 05:53:08;;;;;;;0.00;0.00;;;;;;;7.82;69.51;100328.97;7357168;19;20034;-57
2022/12/18 05:55:35;;;;;;;0.05;0.05;;;;;;;7.77;70.11;100318.66;7355865;19;20010;-58
2022/12/18 05:58:01;;;;;;;0.00;0.00;;;;;;;7.58;69.81;100304.25;7351988;19;20016;-57
2022/12/18 06:00:27;;;;;;;0.00;0.00;;;;;;;7.71;69.81;100320.50;7356303;19;19998;-57
2022/12/18 06:02:52;;;;;;;0.08;0.08;;;;;;;7.69;69.92;100324.84;7360818;19;20046;-58
2022/12/18 06:05:17;;;;;;;0.00;0.00;;;;;;;7.68;69.94;100315.34;7360724;19;20018;-56
2022/12/18 06:07:43;;;;;;;0.00;0.00;;;;;;;7.62;70.27;100308.50;7362749;19;20017;-58
2022/12/18 06:10:08;;;;;;;0.00;0.00;;;;;;;7.64;70.31;100298.09;7361034;19;20809;-58
2022/12/18 06:12:34;;;;;;;0.00;0.00;;;;;;;7.65;70.01;100299.78;7362546;19;20094;-58
2022/12/18 06:15:00;;;;;;;0.00;0.00;;;;;;;7.68;69.86;100299.75;7364428;19;20014;-55
2022/12/18 06:17:29;;;;;;;0.00;0.00;;;;;;;7.68;69.92;100297.16;7360360;19;20943;-57
2022/12/18 06:19:55;;;;;;;0.00;0.00;;;;;;;7.66;70.08;100275.53;7360671;19;20049;-57
2022/12/18 06:22:20;;;;;;;0.10;0.10;;;;;;;7.60;70.07;100254.84;7361463;19;20343;-57
2022/12/18 06:24:46;;;;;;;0.00;0.00;;;;;;;7.49;69.89;100227.31;7360502;19;20074;-58
2022/12/18 06:27:11;;;;;;;0.00;0.00;;;;;;;7.62;70.24;100269.53;7362921;19;20753;-58
2022/12/18 06:29:36;;;;;;;0.00;0.00;;;;;;;7.53;69.69;100228.97;7360459;19;20366;-57
2022/12/18 06:32:02;;;;;;;0.00;0.00;;;;;;;7.51;70.08;100228.16;7361093;19;20034;-58
2022/12/18 06:34:27;;;;;;;0.00;0.00;;;;;;;7.65;70.14;100247.81;7357790;19;20029;-56
2022/12/18 06:36:56;;;;;;;0.00;0.00;;;;;;;7.64;70.02;100235.72;7359597;19;20050;-58
2022/12/18 06:39:22;;;;;;;0.00;0.00;;;;;;;7.61;69.97;100220.19;7362410;19;20010;-57
2022/12/18 06:41:47;;;;;;;0.00;0.00;;;;;;;7.52;70.24;100198.69;7362784;19;20026;-58
2022/12/18 06:44:13;;;;;;;0.00;0.00;;;;;;;7.52;69.97;100182.25;7354740;19;20025;-55
2022/12/18 06:46:38;;;;;;;0.00;0.00;;;;;;;7.59;69.99;100178.63;7362601;19;20015;-57
2022/12/18 06:49:04;;;;;;;0.00;0.00;;;;;;;7.59;70.09;100188.16;7360530;19;20098;-57
2022/12/18 06:51:29;;;;;;;0.00;0.00;;;;;;;7.15;70.06;100114.53;7362038;19;20013;-58
2022/12/18 06:53:55;;;;;;;0.00;0.00;;;;;;;7.50;70.05;100182.28;7359029;19;20466;-56
2022/12/18 06:56:20;;;;;;;0.00;0.00;;;;;;;7.45;70.40;100181.50;7358755;19;20070;-57
2022/12/18 06:58:46;;;;;;;0.00;0.00;;;;;;;7.44;70.87;100192.75;7350017;19;20010;-58
2022/12/18 07:01:12;;;;;;;0.08;0.08;;;;;;;7.37;70.49;100196.38;7366411;19;20019;-58
2022/12/18 07:03:39;;;;;;;0.00;0.00;;;;;;;7.39;70.59;100189.38;7361214;19;20015;-58
2022/12/18 07:06:05;;;;;;;0.00;0.00;;;;;;;7.33;70.31;100168.72;7362744;19;20048;-56
2022/12/18 07:08:32;;;;;;;0.00;0.00;;;;;;;7.29;70.41;100169.66;7364075;19;20017;-58
2022/12/18 07:10:58;;;;;;;0.00;0.00;;;;;;;7.31;70.22;100174.84;7365694;19;20509;-59
2022/12/18 07:13:23;;;;;;;0.10;0.10;;;;;;;7.24;70.21;100171.47;7363200;19;20109;-58
2022/12/18 07:15:49;;;;;;;0.00;0.00;;;;;;;7.23;70.46;100183.59;7364528;19;20030;-59
2022/12/18 07:18:14;;;;;;;0.00;0.00;;;;;;;7.13;69.74;100176.00;7352865;19;20006;-59
2022/12/18 07:20:40;;;;;;;0.00;0.00;;;;;;;7.17;70.26;100173.34;7361320;19;20025;-58
2022/12/18 07:23:05;;;;;;;0.00;0.00;;;;;;;7.07;70.15;100157.94;7362475;19;20011;-57
2022/12/18 07:25:37;;;;;;;0.00;0.00;;;;;;;7.17;69.67;100177.69;7362008;19;20026;-58
2022/12/18 07:28:03;;;;;;;0.00;0.00;;;;;;;7.12;69.66;100171.69;7359516;19;20023;-58
2022/12/18 07:30:29;;;;;;;0.03;0.03;;;;;;;7.08;69.59;100159.66;7363432;19;20027;-57
2022/12/18 07:32:54;;;;;;;0.00;0.00;;;;;;;6.93;69.14;100130.47;7365254;19;20452;-58
2022/12/18 07:35:20;;;;;;;0.00;0.00;;;;;;;7.01;69.64;100144.19;7361546;19;20026;-57
2022/12/18 07:37:45;;;;;;;0.00;0.00;;;;;;;6.94;69.44;100137.38;7361984;19;20015;-59
2022/12/18 07:40:11;;;;;;;0.10;0.10;;;;;;;7.05;69.16;100131.16;7361534;19;20014;-58
2022/12/18 07:42:36;;;;;;;0.03;0.03;;;;;;;7.01;69.09;100107.00;7359191;19;20010;-58
2022/12/18 07:45:03;;;;;;;0.00;0.00;;;;;;;7.01;69.27;100099.19;7364024;19;20116;-58
2022/12/18 07:47:29;;;;;;;0.00;0.00;;;;;;;7.03;69.02;100084.44;7362495;19;20010;-58
2022/12/18 07:49:54;;;;;;;0.10;0.10;;;;;;;6.94;69.36;100054.31;7362039;19;20026;-58
2022/12/18 07:52:20;;;;;;;0.00;0.00;;;;;;;7.05;69.40;100063.66;7363524;19;20033;-58
2022/12/18 07:54:48;;;;;;;0.05;0.05;;;;;;;7.06;69.54;100067.97;7360496;19;20109;-58
2022/12/18 07:57:14;;;;;;;0.00;0.00;;;;;;;7.08;69.22;100027.25;7364537;19;20453;-59
2022/12/18 07:59:39;;;;;;;0.00;0.00;;;;;;;6.96;69.22;100018.81;7361019;19;20090;-58
2022/12/18 08:02:04;;;;;;;0.00;0.00;;;;;;;7.13;69.10;100030.59;7362056;19;20082;-57
2022/12/18 08:04:30;;;;;;;0.05;0.05;;;;;;;7.15;69.15;100008.09;7358012;19;20010;-57
2022/12/18 08:06:55;;;;;;;0.00;0.00;;;;;;;7.18;69.18;100016.66;7361949;19;20466;-57
2022/12/18 08:09:21;;;;;;;0.08;0.08;;;;;;;7.18;69.18;100010.59;7363189;19;20085;-58
2022/12/18 08:11:46;;;;;;;0.00;0.00;;;;;;;7.19;69.33;99983.75;7363383;19;20043;-57
2022/12/18 08:14:11;;;;;;;0.00;0.00;;;;;;;7.18;69.29;99982.03;7362575;19;20565;-57
2022/12/18 08:16:37;;;;;;;0.00;0.00;;;;;;;7.13;69.08;99981.28;7360935;19;20816;-57
2022/12/18 08:19:03;;;;;;;0.00;0.00;;;;;;;7.27;69.31;100005.22;7362290;19;20030;-59
2022/12/18 08:21:30;;;;;;;0.00;0.00;;;;;;;7.17;69.13;99980.34;7361444;19;20148;-59
2022/12/18 08:24:00;;;;;;;0.00;0.00;;;;;;;7.26;69.21;99998.34;7363481;19;20753;-58
2022/12/18 08:26:28;;;;;;;0.00;0.00;;;;;;;7.18;69.22;99974.25;7352688;19;20003;-57
2022/12/18 08:28:57;;;;;;;;;;;;;;;7.29;69.26;99964.50;7362402;19;20006;-58
2022/12/18 08:31:23;;;;;;;0.00;0.00;;;;;;;7.33;68.76;99966.13;7350702;19;19931;-58
2022/12/18 08:33:50;;;;;;;0.05;0.05;;;;;;;7.33;69.00;99955.75;7362473;19;20013;-57
2022/12/18 08:36:17;;;;;;;0.00;0.00;;;;;;;7.26;69.15;99954.19;7360760;19;20018;-57
2022/12/18 08:38:42;;;;;;;0.00;0.00;;;;;;;7.35;68.91;99959.19;7360109;19;20489;-57
2022/12/18 08:41:11;;;;;;;0.00;0.00;;;;;;;7.33;69.47;99934.97;7352513;19;20010;-59
2022/12/18 08:46:22;;;;;;;0.00;0.00;;;;;;;7.32;69.59;99927.22;7358406;19;20044;-58
2022/12/18 08:48:50;;;;;;;0.00;0.00;;;;;;;7.31;69.83;99915.13;7359988;19;20572;-58
2022/12/18 08:51:16;;;;;;;;;;;;;;;7.33;69.16;99924.59;7357894;19;20649;-57
2022/12/18 08:53:42;;;;;;;0.10;0.10;;;;;;;7.25;69.54;99905.75;7357261;19;19922;-59
2022/12/18 08:56:07;;;;;;;0.00;0.00;;;;;;;7.31;70.10;99910.78;7353292;19;20011;-58
2022/12/18 08:58:32;;;;;;;0.00;0.00;;;;;;;7.22;70.18;99903.19;7359125;19;20011;-57
2022/12/18 09:01:05;;;;;;;0.00;0.00;;;;;;;7.32;70.21;99917.69;7361233;19;20097;-58
2022/12/18 09:03:30;;;;;;;0.00;0.00;;;;;;;7.34;70.24;99909.84;7359026;19;20047;-57
2022/12/18 09:05:56;;;;;;;0.00;0.00;;;;;;;7.32;70.24;99901.25;7360661;19;20756;-59
2022/12/18 09:08:22;;;;;;;0.00;0.00;;;;;;;7.34;70.63;99921.09;7362404;19;20003;-59
2022/12/18 09:10:49;;;;;;;0.00;0.00;;;;;;;7.38;70.44;99924.50;7358038;19;20027;-59
2022/12/18 09:13:15;;;;;;;0.03;0.03;;;;;;;7.05;70.83;99856.84;7359913;19;20014;-58
2022/12/18 09:15:46;;;;;;;0.00;0.00;;;;;;;7.37;70.80;99908.06;7361020;19;20030;-58
2022/12/18 09:18:12;;;;;;;0.00;0.00;;;;;;;7.32;70.73;99891.72;7332464;19;20007;-58
2022/12/18 09:20:38;;;;;;;0.00;0.00;;;;;;;7.38;71.39;99896.78;7358212;19;20014;-59
2022/12/18 09:23:05;;;;;;;0.00;0.00;;;;;;;7.38;71.33;99888.13;7362290;19;20037;-58
2022/12/18 09:25:35;;;;;;;0.00;0.00;;;;;;;7.41;71.39;99901.91;7361908;19;20020;-58
2022/12/18 09:28:15;;;;;;;0.00;0.00;;;;;;;7.44;71.20;99877.59;7362454;19;20010;-58
2022/12/18 09:30:44;;;;;;;0.00;0.00;;;;;;;7.45;71.34;99900.06;7362477;19;20015;-59
2022/12/18 09:33:10;;;;;;;0.00;0.00;;;;;;;7.39;71.10;99851.72;7361460;19;20006;-59
2022/12/18 09:35:40;;;;;;;0.00;0.00;;;;;;;7.49;71.82;99857.56;7364789;19;20010;-57
2022/12/18 09:38:06;;;;;;;0.00;0.00;;;;;;;7.01;71.96;99787.72;7368554;19;20021;-58
2022/12/18 09:40:42;;;;;;;0.00;0.00;;;;;;;7.57;71.96;99860.00;7367791;19;20073;-58
2022/12/18 09:43:23;;;;;;;0.03;0.03;;;;;;;7.53;72.14;99828.88;7357280;19;20014;-57
2022/12/18 09:45:53;;;;;;;0.00;0.00;;;;;;;7.60;72.17;99854.69;7344407;19;20019;-58
2022/12/18 09:48:29;;;;;;;0.10;0.10;;;;;;;7.61;72.21;99840.84;7366141;19;20014;-58
2022/12/18 09:51:02;;;;;;;0.10;0.10;;;;;;;7.48;72.32;99820.34;7364303;19;20015;-59
2022/12/18 09:53:31;;;;;;;0.10;0.10;;;;;;;7.57;72.48;99839.19;7369054;19;20010;-58
2022/12/18 09:55:57;;;;;;;0.10;0.10;;;;;;;7.61;72.51;99851.22;7365402;19;20450;-58
2022/12/18 09:58:37;;;;;;;0.10;0.10;;;;;;;7.69;72.22;99841.50;7367809;19;20013;-58
2022/12/18 10:01:07;;;;;;;0.00;0.00;;;;;;;7.64;72.43;99836.41;7367417;19;20402;-58
2022/12/18 10:03:33;;;;;;;0.00;0.00;;;;;;;7.67;72.29;99812.09;7367381;19;20591;-58
2022/12/18 10:06:15;;;;;;;0.10;0.10;;;;;;;7.75;72.24;99849.13;7363030;19;20014;-59
2022/12/18 10:09:03;;;;;;;0.00;0.00;;;;;;;7.76;72.67;99845.66;7365981;19;20029;-57
2022/12/18 10:11:41;;;;;;;0.00;0.00;;;;;;;7.75;72.72;99833.53;7365816;19;20011;-59
2022/12/18 10:14:15;;;;;;;0.00;0.00;;;;;;;7.80;72.33;99831.69;7365034;19;20030;-58
2022/12/18 10:17:02;;;;;;;0.00;0.00;;;;;;;7.84;72.60;99814.25;7362752;19;20521;-59
2022/12/18 10:20:02;;;;;;;0.00;0.00;;;;;;;7.61;72.39;99766.34;7363760;19;20368;-59
2022/12/18 10:22:34;;;;;;;0.00;0.00;;;;;;;7.86;72.23;99805.56;7259912;19;2004261;-59
2022/12/18 10:25:31;;;;;;;0.00;0.00;;;;;;;7.86;72.41;99789.97;7364098;19;20019;-57
2022/12/18 10:28:07;;;;;;;0.00;0.00;;;;;;;7.86;72.54;99794.31;7261911;19;2004461;-58
2022/12/18 10:30:33;;;;;;;0.10;0.10;;;;;;;7.82;72.73;99777.06;7363211;19;20010;-58
2022/12/18 10:33:04;;;;;;;0.00;0.00;;;;;;;7.86;72.30;99769.16;7364432;19;20110;-59
2022/12/18 10:35:30;;;;;;;0.00;0.00;;;;;;;7.86;72.79;99769.16;7363413;19;20398;-59
2022/12/18 10:38:20;;;;;;;0.00;0.00;;;;;;;7.74;72.51;99746.06;7365760;19;22593;-57
2022/12/18 10:41:03;;;;;;;0.00;0.00;;;;;;;7.89;72.82;99752.63;7262324;19;2004421;-58
2022/12/18 10:43:33;;;;;;;0.00;0.00;;;;;;;7.91;72.77;99741.28;7361461;19;20047;-58
2022/12/18 10:46:11;;;;;;;0.00;0.00;;;;;;;7.92;72.92;99743.00;7361231;19;20956;-57
2022/12/18 10:48:47;;;;;;;0.00;0.00;;;;;;;7.91;72.78;99741.28;7359453;19;20056;-58
2022/12/18 10:51:28;;;;;;;0.10;0.10;;;;;;;7.95;72.91;99737.69;7363709;19;20033;-59
2022/12/18 10:54:06;;;;;;;0.00;0.00;;;;;;;7.97;72.81;99722.94;7367744;19;20352;-56
2022/12/18 10:56:35;;;;;;;0.00;0.00;;;;;;;7.91;72.84;99710.09;7365166;19;20035;-57
2022/12/18 10:59:06;;;;;;;0.03;0.03;;;;;;;8.01;72.83;99732.34;7364055;19;20013;-57
2022/12/18 11:01:50;;;;;;;0.10;0.10;;;;;;;8.05;72.78;99705.34;7362392;19;20014;-58
2022/12/18 11:04:26;;;;;;;0.00;0.00;;;;;;;8.06;73.48;99699.28;7365941;19;20010;-59
2022/12/18 11:06:58;;;;;;;0.00;0.00;;;;;;;8.11;73.00;99701.75;7363440;19;20015;-59
2022/12/18 11:09:26;;;;;;;0.00;0.00;;;;;;;8.09;73.00;99676.66;7351942;19;20022;-59
2022/12/18 11:11:54;;;;;;;0.00;0.00;;;;;;;8.06;73.42;99652.47;7365447;19;20010;-55
2022/12/18 11:14:42;;;;;;;0.10;0.10;;;;;;;8.19;73.10;99672.91;7361655;19;20006;-53
2022/12/18 11:17:22;;;;;;;0.00;0.00;;;;;;;8.23;72.83;99677.13;7263907;19;2004817;-55
2022/12/18 11:19:58;;;;;;;0.05;0.05;;;;;;;8.25;73.07;99646.72;7367210;19;20014;-54
2022/12/18 11:22:29;;;;;;;0.00;0.00;;;;;;;8.23;73.57;99628.56;7363957;19;20006;-56
2022/12/18 11:25:17;;;;;;;0.03;0.03;;;;;;;8.30;72.93;99637.03;7366228;19;20018;-56
2022/12/18 11:27:50;;;;;;;0.00;0.00;;;;;;;8.27;73.30;99627.56;7366668;19;20369;-55
2022/12/18 11:30:30;;;;;;;0.00;0.00;;;;;;;8.38;73.24;99626.44;7366168;19;20414;-55
2022/12/18 11:33:11;;;;;;;0.05;0.05;;;;;;;8.39;72.98;99613.38;7366145;19;20010;-56
2022/12/18 11:35:42;;;;;;;0.00;0.00;;;;;;;8.33;73.70;99603.97;7366957;19;20015;-57
2022/12/18 11:38:25;;;;;;;0.00;0.00;;;;;;;8.43;73.55;99601.13;7364293;19;20022;-56
2022/12/18 11:40:56;;;;;;;0.00;0.00;;;;;;;8.42;73.30;99597.66;7363963;19;20018;-54
2022/12/18 11:43:35;;;;;;;0.00;0.00;;;;;;;8.37;73.24;99594.38;7367997;19;20473;-55
2022/12/18 11:46:07;;;;;;;0.00;0.00;;;;;;;8.48;73.76;99607.88;7365612;19;20473;-54
2022/12/18 11:48:45;;;;;;;0.00;0.00;;;;;;;8.52;73.92;99572.22;7363815;19;20016;-56
2022/12/18 11:51:18;;;;;;;0.00;0.00;;;;;;;8.53;73.92;99574.75;7363904;19;20021;-56
2022/12/18 11:53:43;;;;;;;0.10;0.10;;;;;;;8.51;74.00;99555.72;7362550;19;20355;-56